Gas City, IN

3:13 PM EST on February 01, 2015 (GMT -0500)
KB9CQZ Brinker Heights | Change Station
CLOSE
Current Station
Personal Weather Station
Location: Marion, IN
Elevation: 890 ft
Nearby Weather Stations
Active Advisory: Winter Storm Warning

Elev 890 ft 40.57 °N, 85.64 °W | Updated 1 second ago

Snow
Snow
33.3 °F
Feels Like 28 °F
N
6.0
Wind Variable Wind from SSE
Gusts 7.0 mph

Today
High -- | Low -- °F
--% Chance of Precip.
Yesterday
High -- | Low -- °F
Precip. -- in
7:52 AM 6:00 PM
Waxing Gibbous, 96% visible
Pressure 29.65 in
Visibility 1.8 miles
Clouds Mostly Cloudy 400 ft
Overcast 1000 ft
Windchill 28 °F
Dew Point 32 °F
Humidity 96%
Rainfall 0.17 in
Snow Depth Not available.
UV 0.0 out of 12
Pollen .10 out of 12
Air Quality Not available.
Flu Activity Not available.
METAR KMZZ 011955Z AUTO 10010KT 1 3/4SM -SN BKN004 OVC010 00/00 A2965 RMK AO2 P0001 T00020000

More Conditions Fewer Conditions

Pressure 29.65 in
Visibility 1.8 miles
Clouds Mostly Cloudy 400 ft
Overcast 1000 ft
Windchill 28 °F
Dew Point 32 °F
Humidity 96%
Rainfall 0.17 in
Snow Depth Not available.
UV 0.0 out of 12
Pollen .10 out of 12
Air Quality Not available.
Flu Activity Not available.
METAR KMZZ 011955Z AUTO 10010KT 1 3/4SM -SN BKN004 OVC010 00/00 A2965 RMK AO2 P0001 T00020000

More Conditions Fewer Conditions

10-Day Weather Forecast

Almanac

Astronomy

Feb. 01, 2015 Rise Set
Actual Time
Civil Twilight
Nautical Twilight
Astronomical Twilight
Moon
Length of Visible Light
Length of Day
Tomorrow will be .
, % of the Moon is Illuminated

Today's Extremes

State Highs State Lows

Community

WunderPhotos

Upload Photos

1,792,485 photos uploaded!

WunderBlogs® & News

Nearby

Air Quality

  Air Quality AQ Index Pollutant
Not available.

Snow Depth

Station Depth Elevation

Earthquake Activity

City Distance Mag. Time & Date
Minimum magnitude displayed is 2.5.

Coastal Water Temperatures

Place Temperature

Nearby Weather Stations